sensor_id;sensor_type;location;lat;lon;timestamp;P1;durP1;ratioP1;P2;durP2;ratioP2
4533;SDS011;2279;51.448;7.306;2023-04-16T00:00:08;38.73;;;18.70;;
4533;SDS011;2279;51.448;7.306;2023-04-16T00:02:34;37.20;;;20.37;;
4533;SDS011;2279;51.448;7.306;2023-04-16T00:05:00;31.37;;;17.27;;
4533;SDS011;2279;51.448;7.306;2023-04-16T00:07:26;32.50;;;18.00;;
4533;SDS011;2279;51.448;7.306;2023-04-16T00:09:51;27.80;;;16.93;;
4533;SDS011;2279;51.448;7.306;2023-04-16T00:12:17;33.27;;;17.27;;
4533;SDS011;2279;51.448;7.306;2023-04-16T00:14:43;35.10;;;18.57;;
4533;SDS011;2279;51.448;7.306;2023-04-16T00:17:09;46.67;;;19.40;;
4533;SDS011;2279;51.448;7.306;2023-04-16T00:19:35;33.73;;;19.23;;
4533;SDS011;2279;51.448;7.306;2023-04-16T00:22:01;39.10;;;18.90;;
4533;SDS011;2279;51.448;7.306;2023-04-16T00:24:27;34.30;;;17.00;;
4533;SDS011;2279;51.448;7.306;2023-04-16T00:26:53;36.00;;;19.30;;
4533;SDS011;2279;51.448;7.306;2023-04-16T00:29:19;41.80;;;19.53;;
4533;SDS011;2279;51.448;7.306;2023-04-16T00:31:46;41.93;;;19.70;;
4533;SDS011;2279;51.448;7.306;2023-04-16T00:34:12;56.53;;;19.17;;
4533;SDS011;2279;51.448;7.306;2023-04-16T00:36:38;38.43;;;19.10;;
4533;SDS011;2279;51.448;7.306;2023-04-16T00:39:03;33.27;;;18.37;;
4533;SDS011;2279;51.448;7.306;2023-04-16T00:41:29;31.53;;;17.70;;
4533;SDS011;2279;51.448;7.306;2023-04-16T00:43:55;32.53;;;18.37;;
4533;SDS011;2279;51.448;7.306;2023-04-16T00:46:22;32.33;;;18.30;;
4533;SDS011;2279;51.448;7.306;2023-04-16T00:48:48;31.77;;;17.90;;
4533;SDS011;2279;51.448;7.306;2023-04-16T00:51:18;37.03;;;18.90;;
4533;SDS011;2279;51.448;7.306;2023-04-16T00:53:45;33.40;;;18.90;;
4533;SDS011;2279;51.448;7.306;2023-04-16T00:56:12;36.97;;;18.30;;
4533;SDS011;2279;51.448;7.306;2023-04-16T00:58:38;41.20;;;20.50;;
4533;SDS011;2279;51.448;7.306;2023-04-16T01:01:04;34.43;;;18.63;;
4533;SDS011;2279;51.448;7.306;2023-04-16T01:03:35;37.47;;;18.53;;
4533;SDS011;2279;51.448;7.306;2023-04-16T01:06:02;40.30;;;19.80;;
4533;SDS011;2279;51.448;7.306;2023-04-16T01:08:28;35.43;;;18.40;;
4533;SDS011;2279;51.448;7.306;2023-04-16T01:10:54;34.43;;;18.73;;
4533;SDS011;2279;51.448;7.306;2023-04-16T01:13:20;45.87;;;20.90;;
4533;SDS011;2279;51.448;7.306;2023-04-16T01:15:46;34.97;;;18.23;;
4533;SDS011;2279;51.448;7.306;2023-04-16T01:18:15;44.87;;;18.83;;
4533;SDS011;2279;51.448;7.306;2023-04-16T01:20:42;38.60;;;16.27;;
4533;SDS011;2279;51.448;7.306;2023-04-16T01:23:08;37.37;;;18.80;;
4533;SDS011;2279;51.448;7.306;2023-04-16T01:25:35;36.50;;;19.77;;
4533;SDS011;2279;51.448;7.306;2023-04-16T01:28:01;33.10;;;18.40;;
4533;SDS011;2279;51.448;7.306;2023-04-16T01:30:27;34.90;;;17.03;;
4533;SDS011;2279;51.448;7.306;2023-04-16T01:32:53;33.23;;;16.60;;
4533;SDS011;2279;51.448;7.306;2023-04-16T01:35:19;39.80;;;19.07;;
4533;SDS011;2279;51.448;7.306;2023-04-16T01:37:45;36.43;;;18.70;;
4533;SDS011;2279;51.448;7.306;2023-04-16T01:40:11;39.90;;;17.90;;
4533;SDS011;2279;51.448;7.306;2023-04-16T01:42:37;34.67;;;19.20;;
4533;SDS011;2279;51.448;7.306;2023-04-16T01:45:03;40.50;;;20.00;;
4533;SDS011;2279;51.448;7.306;2023-04-16T01:47:29;39.00;;;20.33;;
4533;SDS011;2279;51.448;7.306;2023-04-16T01:49:55;40.13;;;18.47;;
4533;SDS011;2279;51.448;7.306;2023-04-16T01:52:21;38.37;;;18.23;;
4533;SDS011;2279;51.448;7.306;2023-04-16T01:54:47;38.47;;;19.20;;
4533;SDS011;2279;51.448;7.306;2023-04-16T01:57:13;36.93;;;18.47;;
4533;SDS011;2279;51.448;7.306;2023-04-16T01:59:39;38.70;;;19.47;;
4533;SDS011;2279;51.448;7.306;2023-04-16T02:02:09;38.77;;;19.83;;
4533;SDS011;2279;51.448;7.306;2023-04-16T02:04:42;48.70;;;21.90;;
4533;SDS011;2279;51.448;7.306;2023-04-16T02:07:09;41.60;;;23.20;;
4533;SDS011;2279;51.448;7.306;2023-04-16T02:09:35;40.50;;;20.53;;
4533;SDS011;2279;51.448;7.306;2023-04-16T02:12:02;38.33;;;20.20;;
4533;SDS011;2279;51.448;7.306;2023-04-16T02:14:28;40.03;;;19.67;;
4533;SDS011;2279;51.448;7.306;2023-04-16T02:16:55;37.13;;;17.70;;
4533;SDS011;2279;51.448;7.306;2023-04-16T02:19:21;34.40;;;19.10;;
4533;SDS011;2279;51.448;7.306;2023-04-16T02:21:47;40.50;;;20.80;;
4533;SDS011;2279;51.448;7.306;2023-04-16T02:24:13;38.90;;;20.57;;
4533;SDS011;2279;51.448;7.306;2023-04-16T02:26:39;34.60;;;17.93;;
4533;SDS011;2279;51.448;7.306;2023-04-16T02:29:05;36.37;;;20.67;;
4533;SDS011;2279;51.448;7.306;2023-04-16T02:31:31;36.77;;;18.40;;
4533;SDS011;2279;51.448;7.306;2023-04-16T02:33:57;41.60;;;18.97;;
4533;SDS011;2279;51.448;7.306;2023-04-16T02:36:23;39.73;;;19.87;;
4533;SDS011;2279;51.448;7.306;2023-04-16T02:38:49;41.70;;;20.00;;
4533;SDS011;2279;51.448;7.306;2023-04-16T02:41:15;44.63;;;18.97;;
4533;SDS011;2279;51.448;7.306;2023-04-16T02:43:41;40.00;;;20.30;;
4533;SDS011;2279;51.448;7.306;2023-04-16T02:46:08;45.73;;;21.10;;
4533;SDS011;2279;51.448;7.306;2023-04-16T02:48:34;38.13;;;20.50;;
4533;SDS011;2279;51.448;7.306;2023-04-16T02:51:00;39.97;;;20.17;;
4533;SDS011;2279;51.448;7.306;2023-04-16T02:53:26;47.47;;;21.90;;
4533;SDS011;2279;51.448;7.306;2023-04-16T02:55:52;43.40;;;20.40;;
4533;SDS011;2279;51.448;7.306;2023-04-16T02:58:19;42.90;;;21.83;;
4533;SDS011;2279;51.448;7.306;2023-04-16T03:00:45;37.23;;;20.30;;
4533;SDS011;2279;51.448;7.306;2023-04-16T03:03:11;39.27;;;19.77;;
4533;SDS011;2279;51.448;7.306;2023-04-16T03:05:37;34.60;;;19.87;;
4533;SDS011;2279;51.448;7.306;2023-04-16T03:08:03;42.53;;;21.87;;
4533;SDS011;2279;51.448;7.306;2023-04-16T03:10:30;37.87;;;21.63;;
4533;SDS011;2279;51.448;7.306;2023-04-16T03:12:56;36.73;;;20.10;;
4533;SDS011;2279;51.448;7.306;2023-04-16T03:15:22;43.47;;;22.10;;
4533;SDS011;2279;51.448;7.306;2023-04-16T03:17:49;36.50;;;19.37;;
4533;SDS011;2279;51.448;7.306;2023-04-16T03:20:15;41.37;;;19.67;;
4533;SDS011;2279;51.448;7.306;2023-04-16T03:22:47;34.80;;;20.57;;
4533;SDS011;2279;51.448;7.306;2023-04-16T03:25:13;39.00;;;19.87;;
4533;SDS011;2279;51.448;7.306;2023-04-16T03:27:39;45.03;;;22.20;;
4533;SDS011;2279;51.448;7.306;2023-04-16T03:30:06;34.67;;;18.87;;
4533;SDS011;2279;51.448;7.306;2023-04-16T03:32:32;43.23;;;20.93;;
4533;SDS011;2279;51.448;7.306;2023-04-16T03:34:58;39.57;;;19.47;;
4533;SDS011;2279;51.448;7.306;2023-04-16T03:37:24;40.03;;;20.37;;
4533;SDS011;2279;51.448;7.306;2023-04-16T03:39:50;36.07;;;19.37;;
4533;SDS011;2279;51.448;7.306;2023-04-16T03:42:16;43.77;;;20.50;;
4533;SDS011;2279;51.448;7.306;2023-04-16T03:44:42;32.93;;;21.27;;
4533;SDS011;2279;51.448;7.306;2023-04-16T03:47:08;35.50;;;19.53;;
4533;SDS011;2279;51.448;7.306;2023-04-16T03:49:34;39.83;;;19.67;;
4533;SDS011;2279;51.448;7.306;2023-04-16T03:52:00;31.87;;;18.63;;
4533;SDS011;2279;51.448;7.306;2023-04-16T03:54:26;37.83;;;20.93;;
4533;SDS011;2279;51.448;7.306;2023-04-16T03:56:52;43.73;;;20.43;;
4533;SDS011;2279;51.448;7.306;2023-04-16T03:59:18;38.73;;;19.20;;
4533;SDS011;2279;51.448;7.306;2023-04-16T04:01:44;36.30;;;20.00;;
4533;SDS011;2279;51.448;7.306;2023-04-16T04:04:10;34.73;;;19.97;;
4533;SDS011;2279;51.448;7.306;2023-04-16T04:06:36;36.23;;;19.77;;
4533;SDS011;2279;51.448;7.306;2023-04-16T04:09:02;37.87;;;20.73;;
4533;SDS011;2279;51.448;7.306;2023-04-16T04:11:28;44.13;;;20.90;;
4533;SDS011;2279;51.448;7.306;2023-04-16T04:13:54;39.73;;;20.50;;
4533;SDS011;2279;51.448;7.306;2023-04-16T04:16:20;55.63;;;24.03;;
4533;SDS011;2279;51.448;7.306;2023-04-16T04:18:46;39.13;;;21.23;;
4533;SDS011;2279;51.448;7.306;2023-04-16T04:21:12;38.00;;;21.20;;
4533;SDS011;2279;51.448;7.306;2023-04-16T04:23:38;46.30;;;21.37;;
4533;SDS011;2279;51.448;7.306;2023-04-16T04:26:05;47.47;;;22.57;;
4533;SDS011;2279;51.448;7.306;2023-04-16T04:28:31;45.73;;;23.87;;
4533;SDS011;2279;51.448;7.306;2023-04-16T04:30:57;47.60;;;23.30;;
4533;SDS011;2279;51.448;7.306;2023-04-16T04:33:26;52.43;;;25.93;;
4533;SDS011;2279;51.448;7.306;2023-04-16T04:35:53;53.97;;;23.07;;
4533;SDS011;2279;51.448;7.306;2023-04-16T04:38:19;47.33;;;22.13;;
4533;SDS011;2279;51.448;7.306;2023-04-16T04:40:49;46.00;;;21.80;;
4533;SDS011;2279;51.448;7.306;2023-04-16T04:43:15;44.47;;;21.80;;
4533;SDS011;2279;51.448;7.306;2023-04-16T04:45:41;44.60;;;22.77;;
4533;SDS011;2279;51.448;7.306;2023-04-16T04:48:06;57.20;;;24.67;;
4533;SDS011;2279;51.448;7.306;2023-04-16T04:50:32;48.80;;;22.80;;
4533;SDS011;2279;51.448;7.306;2023-04-16T04:52:58;53.03;;;24.90;;
4533;SDS011;2279;51.448;7.306;2023-04-16T04:55:24;55.13;;;23.63;;
4533;SDS011;2279;51.448;7.306;2023-04-16T04:57:50;48.80;;;23.57;;
4533;SDS011;2279;51.448;7.306;2023-04-16T05:00:16;47.40;;;22.43;;
4533;SDS011;2279;51.448;7.306;2023-04-16T05:02:42;55.00;;;24.37;;
4533;SDS011;2279;51.448;7.306;2023-04-16T05:05:08;59.77;;;25.30;;
4533;SDS011;2279;51.448;7.306;2023-04-16T05:07:34;48.07;;;23.20;;
4533;SDS011;2279;51.448;7.306;2023-04-16T05:10:00;51.90;;;22.87;;
4533;SDS011;2279;51.448;7.306;2023-04-16T05:12:26;45.93;;;22.90;;
4533;SDS011;2279;51.448;7.306;2023-04-16T05:14:52;55.30;;;24.33;;
4533;SDS011;2279;51.448;7.306;2023-04-16T05:17:18;46.50;;;22.97;;
4533;SDS011;2279;51.448;7.306;2023-04-16T05:19:44;56.53;;;23.90;;
4533;SDS011;2279;51.448;7.306;2023-04-16T05:22:10;52.97;;;25.03;;
4533;SDS011;2279;51.448;7.306;2023-04-16T05:24:36;47.23;;;23.13;;
4533;SDS011;2279;51.448;7.306;2023-04-16T05:27:02;47.20;;;24.17;;
4533;SDS011;2279;51.448;7.306;2023-04-16T05:29:28;49.50;;;24.13;;
4533;SDS011;2279;51.448;7.306;2023-04-16T05:31:54;51.33;;;23.23;;
4533;SDS011;2279;51.448;7.306;2023-04-16T05:34:21;57.67;;;26.70;;
4533;SDS011;2279;51.448;7.306;2023-04-16T05:36:47;51.27;;;26.43;;
4533;SDS011;2279;51.448;7.306;2023-04-16T05:39:13;46.93;;;23.90;;
4533;SDS011;2279;51.448;7.306;2023-04-16T05:41:39;47.47;;;23.80;;
4533;SDS011;2279;51.448;7.306;2023-04-16T05:44:05;49.03;;;22.20;;
4533;SDS011;2279;51.448;7.306;2023-04-16T05:46:31;50.90;;;24.60;;
4533;SDS011;2279;51.448;7.306;2023-04-16T05:48:57;51.43;;;24.77;;
4533;SDS011;2279;51.448;7.306;2023-04-16T05:51:23;51.27;;;24.17;;
4533;SDS011;2279;51.448;7.306;2023-04-16T05:53:51;48.47;;;24.80;;
4533;SDS011;2279;51.448;7.306;2023-04-16T05:56:17;53.97;;;25.20;;
4533;SDS011;2279;51.448;7.306;2023-04-16T05:58:43;40.70;;;21.37;;
4533;SDS011;2279;51.448;7.306;2023-04-16T06:01:10;54.90;;;26.07;;
4533;SDS011;2279;51.448;7.306;2023-04-16T06:03:35;49.53;;;23.17;;
4533;SDS011;2279;51.448;7.306;2023-04-16T06:06:01;45.57;;;22.57;;
4533;SDS011;2279;51.448;7.306;2023-04-16T06:08:27;44.67;;;24.43;;
4533;SDS011;2279;51.448;7.306;2023-04-16T06:10:53;53.67;;;25.37;;
4533;SDS011;2279;51.448;7.306;2023-04-16T06:13:20;46.97;;;25.07;;
4533;SDS011;2279;51.448;7.306;2023-04-16T06:15:46;45.10;;;23.43;;
4533;SDS011;2279;51.448;7.306;2023-04-16T06:18:12;42.50;;;23.17;;
4533;SDS011;2279;51.448;7.306;2023-04-16T06:20:38;45.87;;;24.67;;
4533;SDS011;2279;51.448;7.306;2023-04-16T06:23:04;48.23;;;24.30;;
4533;SDS011;2279;51.448;7.306;2023-04-16T06:25:30;47.93;;;23.57;;
4533;SDS011;2279;51.448;7.306;2023-04-16T06:27:56;48.17;;;24.73;;
4533;SDS011;2279;51.448;7.306;2023-04-16T06:30:22;47.47;;;24.83;;
4533;SDS011;2279;51.448;7.306;2023-04-16T06:32:48;52.30;;;25.50;;
4533;SDS011;2279;51.448;7.306;2023-04-16T06:35:14;46.70;;;24.07;;
4533;SDS011;2279;51.448;7.306;2023-04-16T06:37:40;47.87;;;24.00;;
4533;SDS011;2279;51.448;7.306;2023-04-16T06:40:06;57.37;;;25.33;;
4533;SDS011;2279;51.448;7.306;2023-04-16T06:42:33;47.27;;;25.13;;
4533;SDS011;2279;51.448;7.306;2023-04-16T06:44:58;48.73;;;24.70;;
4533;SDS011;2279;51.448;7.306;2023-04-16T06:47:24;41.97;;;23.67;;
4533;SDS011;2279;51.448;7.306;2023-04-16T06:49:51;42.10;;;24.30;;
4533;SDS011;2279;51.448;7.306;2023-04-16T06:52:16;50.40;;;24.20;;
4533;SDS011;2279;51.448;7.306;2023-04-16T06:54:42;52.40;;;26.17;;
4533;SDS011;2279;51.448;7.306;2023-04-16T06:57:08;48.07;;;24.80;;
4533;SDS011;2279;51.448;7.306;2023-04-16T06:59:35;45.50;;;26.00;;
4533;SDS011;2279;51.448;7.306;2023-04-16T07:02:01;49.03;;;25.50;;
4533;SDS011;2279;51.448;7.306;2023-04-16T07:04:27;51.27;;;27.37;;
4533;SDS011;2279;51.448;7.306;2023-04-16T07:06:53;41.87;;;22.30;;
4533;SDS011;2279;51.448;7.306;2023-04-16T07:09:19;55.10;;;24.60;;
4533;SDS011;2279;51.448;7.306;2023-04-16T07:11:45;39.60;;;23.53;;
4533;SDS011;2279;51.448;7.306;2023-04-16T07:14:11;43.03;;;23.07;;
4533;SDS011;2279;51.448;7.306;2023-04-16T07:16:37;40.17;;;22.57;;
4533;SDS011;2279;51.448;7.306;2023-04-16T07:19:03;40.00;;;23.07;;
4533;SDS011;2279;51.448;7.306;2023-04-16T07:21:29;36.73;;;22.73;;
4533;SDS011;2279;51.448;7.306;2023-04-16T07:23:55;47.10;;;22.20;;
4533;SDS011;2279;51.448;7.306;2023-04-16T07:26:21;40.67;;;22.50;;
4533;SDS011;2279;51.448;7.306;2023-04-16T07:28:47;40.07;;;22.60;;
4533;SDS011;2279;51.448;7.306;2023-04-16T07:31:13;39.30;;;22.93;;
4533;SDS011;2279;51.448;7.306;2023-04-16T07:33:39;41.23;;;23.30;;
4533;SDS011;2279;51.448;7.306;2023-04-16T07:36:05;46.03;;;23.77;;
4533;SDS011;2279;51.448;7.306;2023-04-16T07:38:31;40.57;;;23.57;;
4533;SDS011;2279;51.448;7.306;2023-04-16T07:40:58;38.43;;;23.53;;
4533;SDS011;2279;51.448;7.306;2023-04-16T07:43:24;40.40;;;21.57;;
4533;SDS011;2279;51.448;7.306;2023-04-16T07:45:50;40.33;;;23.17;;
4533;SDS011;2279;51.448;7.306;2023-04-16T07:48:16;38.57;;;21.50;;
4533;SDS011;2279;51.448;7.306;2023-04-16T07:50:42;41.83;;;23.60;;
4533;SDS011;2279;51.448;7.306;2023-04-16T07:53:08;40.10;;;22.07;;
4533;SDS011;2279;51.448;7.306;2023-04-16T07:55:34;42.83;;;23.53;;
4533;SDS011;2279;51.448;7.306;2023-04-16T07:58:00;37.03;;;21.20;;
4533;SDS011;2279;51.448;7.306;2023-04-16T08:00:27;38.47;;;22.27;;
4533;SDS011;2279;51.448;7.306;2023-04-16T08:02:53;42.10;;;23.57;;
4533;SDS011;2279;51.448;7.306;2023-04-16T08:05:19;40.30;;;23.90;;
4533;SDS011;2279;51.448;7.306;2023-04-16T08:07:45;36.23;;;22.00;;
4533;SDS011;2279;51.448;7.306;2023-04-16T08:10:11;31.33;;;21.47;;
4533;SDS011;2279;51.448;7.306;2023-04-16T08:12:37;37.17;;;19.57;;
4533;SDS011;2279;51.448;7.306;2023-04-16T08:15:03;32.47;;;22.70;;
4533;SDS011;2279;51.448;7.306;2023-04-16T08:17:29;35.73;;;20.30;;
4533;SDS011;2279;51.448;7.306;2023-04-16T08:19:55;35.43;;;21.07;;
4533;SDS011;2279;51.448;7.306;2023-04-16T08:22:21;31.70;;;19.80;;
4533;SDS011;2279;51.448;7.306;2023-04-16T08:24:47;34.37;;;21.90;;
4533;SDS011;2279;51.448;7.306;2023-04-16T08:27:13;34.03;;;20.87;;
4533;SDS011;2279;51.448;7.306;2023-04-16T08:29:40;35.37;;;20.97;;
4533;SDS011;2279;51.448;7.306;2023-04-16T08:32:06;33.43;;;20.30;;
4533;SDS011;2279;51.448;7.306;2023-04-16T08:34:33;37.30;;;22.70;;
4533;SDS011;2279;51.448;7.306;2023-04-16T08:36:59;38.67;;;21.23;;
4533;SDS011;2279;51.448;7.306;2023-04-16T08:39:25;30.90;;;20.50;;
4533;SDS011;2279;51.448;7.306;2023-04-16T08:41:51;40.70;;;20.70;;
4533;SDS011;2279;51.448;7.306;2023-04-16T08:44:19;32.50;;;21.37;;
4533;SDS011;2279;51.448;7.306;2023-04-16T08:46:46;31.00;;;20.13;;
4533;SDS011;2279;51.448;7.306;2023-04-16T08:49:16;32.03;;;20.27;;
4533;SDS011;2279;51.448;7.306;2023-04-16T08:51:42;28.13;;;18.23;;
4533;SDS011;2279;51.448;7.306;2023-04-16T08:54:11;31.03;;;20.50;;
4533;SDS011;2279;51.448;7.306;2023-04-16T08:56:38;32.53;;;19.43;;
4533;SDS011;2279;51.448;7.306;2023-04-16T08:59:06;33.33;;;20.50;;
4533;SDS011;2279;51.448;7.306;2023-04-16T09:01:34;30.97;;;20.50;;
4533;SDS011;2279;51.448;7.306;2023-04-16T09:04:00;35.40;;;21.53;;
4533;SDS011;2279;51.448;7.306;2023-04-16T09:06:27;33.83;;;20.67;;
4533;SDS011;2279;51.448;7.306;2023-04-16T09:08:53;29.30;;;20.27;;
4533;SDS011;2279;51.448;7.306;2023-04-16T09:11:19;31.30;;;18.10;;
4533;SDS011;2279;51.448;7.306;2023-04-16T09:13:46;31.13;;;19.70;;
4533;SDS011;2279;51.448;7.306;2023-04-16T09:16:12;28.80;;;19.40;;
4533;SDS011;2279;51.448;7.306;2023-04-16T09:18:39;30.23;;;19.90;;
4533;SDS011;2279;51.448;7.306;2023-04-16T09:21:06;29.50;;;18.70;;
4533;SDS011;2279;51.448;7.306;2023-04-16T09:23:34;29.20;;;20.20;;
4533;SDS011;2279;51.448;7.306;2023-04-16T09:26:00;36.60;;;21.90;;
4533;SDS011;2279;51.448;7.306;2023-04-16T09:28:38;29.27;;;18.97;;
4533;SDS011;2279;51.448;7.306;2023-04-16T09:33:34;28.73;;;18.00;;
4533;SDS011;2279;51.448;7.306;2023-04-16T09:36:00;32.70;;;20.50;;
4533;SDS011;2279;51.448;7.306;2023-04-16T09:38:26;32.43;;;21.13;;
4533;SDS011;2279;51.448;7.306;2023-04-16T09:41:09;29.87;;;20.20;;
4533;SDS011;2279;51.448;7.306;2023-04-16T09:43:36;30.43;;;19.10;;
4533;SDS011;2279;51.448;7.306;2023-04-16T09:46:02;30.50;;;19.87;;
4533;SDS011;2279;51.448;7.306;2023-04-16T09:48:29;31.77;;;20.50;;
4533;SDS011;2279;51.448;7.306;2023-04-16T09:50:56;36.30;;;19.60;;
4533;SDS011;2279;51.448;7.306;2023-04-16T09:53:22;32.30;;;21.23;;
4533;SDS011;2279;51.448;7.306;2023-04-16T09:55:49;33.80;;;20.43;;
4533;SDS011;2279;51.448;7.306;2023-04-16T09:58:17;34.90;;;20.50;;
4533;SDS011;2279;51.448;7.306;2023-04-16T10:00:43;33.20;;;20.30;;
4533;SDS011;2279;51.448;7.306;2023-04-16T10:03:10;31.80;;;21.37;;
4533;SDS011;2279;51.448;7.306;2023-04-16T10:05:36;29.30;;;20.47;;
4533;SDS011;2279;51.448;7.306;2023-04-16T10:08:02;27.70;;;19.53;;
4533;SDS011;2279;51.448;7.306;2023-04-16T10:10:35;28.60;;;19.27;;
4533;SDS011;2279;51.448;7.306;2023-04-16T10:13:01;30.93;;;19.30;;
4533;SDS011;2279;51.448;7.306;2023-04-16T10:15:27;31.20;;;21.40;;
4533;SDS011;2279;51.448;7.306;2023-04-16T10:17:53;30.43;;;20.00;;
4533;SDS011;2279;51.448;7.306;2023-04-16T10:20:21;28.13;;;19.63;;
4533;SDS011;2279;51.448;7.306;2023-04-16T10:22:47;31.37;;;21.00;;
4533;SDS011;2279;51.448;7.306;2023-04-16T10:25:13;34.07;;;19.33;;
4533;SDS011;2279;51.448;7.306;2023-04-16T10:27:39;27.43;;;18.67;;
4533;SDS011;2279;51.448;7.306;2023-04-16T10:30:05;28.03;;;19.13;;
4533;SDS011;2279;51.448;7.306;2023-04-16T10:32:32;25.03;;;17.43;;
4533;SDS011;2279;51.448;7.306;2023-04-16T10:34:59;25.50;;;17.40;;
4533;SDS011;2279;51.448;7.306;2023-04-16T10:37:28;25.50;;;18.57;;
4533;SDS011;2279;51.448;7.306;2023-04-16T10:39:55;24.20;;;16.77;;
4533;SDS011;2279;51.448;7.306;2023-04-16T10:42:21;25.20;;;18.90;;
4533;SDS011;2279;51.448;7.306;2023-04-16T10:44:47;27.03;;;17.53;;
4533;SDS011;2279;51.448;7.306;2023-04-16T10:47:13;26.20;;;17.53;;
4533;SDS011;2279;51.448;7.306;2023-04-16T10:49:39;23.00;;;16.77;;
4533;SDS011;2279;51.448;7.306;2023-04-16T10:52:09;26.20;;;17.67;;
4533;SDS011;2279;51.448;7.306;2023-04-16T10:54:36;21.73;;;15.87;;
4533;SDS011;2279;51.448;7.306;2023-04-16T10:57:03;24.00;;;17.07;;
4533;SDS011;2279;51.448;7.306;2023-04-16T10:59:30;24.60;;;16.50;;
4533;SDS011;2279;51.448;7.306;2023-04-16T11:01:58;23.70;;;17.83;;
4533;SDS011;2279;51.448;7.306;2023-04-16T11:04:28;24.67;;;18.53;;
4533;SDS011;2279;51.448;7.306;2023-04-16T11:12:35;24.50;;;18.00;;
4533;SDS011;2279;51.448;7.306;2023-04-16T11:17:29;25.00;;;17.80;;
4533;SDS011;2279;51.448;7.306;2023-04-16T11:19:55;23.90;;;14.93;;
4533;SDS011;2279;51.448;7.306;2023-04-16T11:22:21;21.10;;;15.37;;
4533;SDS011;2279;51.448;7.306;2023-04-16T11:24:52;18.77;;;14.73;;
4533;SDS011;2279;51.448;7.306;2023-04-16T11:27:18;22.83;;;16.27;;
4533;SDS011;2279;51.448;7.306;2023-04-16T11:29:45;18.50;;;15.13;;
4533;SDS011;2279;51.448;7.306;2023-04-16T11:32:14;19.40;;;14.70;;
4533;SDS011;2279;51.448;7.306;2023-04-16T11:34:45;18.30;;;14.80;;
4533;SDS011;2279;51.448;7.306;2023-04-16T11:37:11;21.33;;;15.60;;
4533;SDS011;2279;51.448;7.306;2023-04-16T11:39:49;20.30;;;14.43;;
4533;SDS011;2279;51.448;7.306;2023-04-16T11:42:18;18.00;;;13.80;;
4533;SDS011;2279;51.448;7.306;2023-04-16T11:44:45;21.43;;;15.27;;
4533;SDS011;2279;51.448;7.306;2023-04-16T11:47:11;20.00;;;15.67;;
4533;SDS011;2279;51.448;7.306;2023-04-16T11:49:37;18.70;;;14.50;;
4533;SDS011;2279;51.448;7.306;2023-04-16T11:52:03;19.00;;;14.37;;
4533;SDS011;2279;51.448;7.306;2023-04-16T11:54:29;16.93;;;13.33;;
4533;SDS011;2279;51.448;7.306;2023-04-16T11:56:59;20.43;;;14.50;;
4533;SDS011;2279;51.448;7.306;2023-04-16T11:59:25;18.53;;;14.90;;
4533;SDS011;2279;51.448;7.306;2023-04-16T12:01:52;19.80;;;14.10;;
4533;SDS011;2279;51.448;7.306;2023-04-16T12:04:22;20.33;;;15.17;;
4533;SDS011;2279;51.448;7.306;2023-04-16T12:09:33;21.30;;;14.50;;
4533;SDS011;2279;51.448;7.306;2023-04-16T12:12:00;16.00;;;14.00;;
4533;SDS011;2279;51.448;7.306;2023-04-16T12:14:26;24.73;;;15.63;;
4533;SDS011;2279;51.448;7.306;2023-04-16T12:16:53;19.53;;;15.10;;
4533;SDS011;2279;51.448;7.306;2023-04-16T12:19:19;19.53;;;15.17;;
4533;SDS011;2279;51.448;7.306;2023-04-16T12:21:45;19.47;;;15.00;;
4533;SDS011;2279;51.448;7.306;2023-04-16T12:24:12;22.20;;;14.70;;
4533;SDS011;2279;51.448;7.306;2023-04-16T12:26:42;22.93;;;16.90;;
4533;SDS011;2279;51.448;7.306;2023-04-16T12:31:41;21.20;;;15.10;;
4533;SDS011;2279;51.448;7.306;2023-04-16T12:34:07;22.00;;;15.40;;
4533;SDS011;2279;51.448;7.306;2023-04-16T12:36:34;25.53;;;16.60;;
4533;SDS011;2279;51.448;7.306;2023-04-16T12:39:00;23.03;;;16.40;;
4533;SDS011;2279;51.448;7.306;2023-04-16T12:41:27;20.10;;;14.87;;
4533;SDS011;2279;51.448;7.306;2023-04-16T12:44:02;20.30;;;15.33;;
4533;SDS011;2279;51.448;7.306;2023-04-16T12:46:28;23.80;;;15.67;;
4533;SDS011;2279;51.448;7.306;2023-04-16T12:48:53;21.00;;;14.40;;
4533;SDS011;2279;51.448;7.306;2023-04-16T12:51:21;21.20;;;16.47;;
4533;SDS011;2279;51.448;7.306;2023-04-16T12:53:47;22.90;;;16.50;;
4533;SDS011;2279;51.448;7.306;2023-04-16T12:56:13;22.63;;;15.63;;
4533;SDS011;2279;51.448;7.306;2023-04-16T12:58:40;18.07;;;14.60;;
4533;SDS011;2279;51.448;7.306;2023-04-16T13:01:06;18.73;;;14.70;;
4533;SDS011;2279;51.448;7.306;2023-04-16T13:03:32;22.43;;;14.13;;
4533;SDS011;2279;51.448;7.306;2023-04-16T13:06:01;18.43;;;14.33;;
4533;SDS011;2279;51.448;7.306;2023-04-16T13:08:27;18.23;;;14.90;;
4533;SDS011;2279;51.448;7.306;2023-04-16T13:10:53;20.40;;;14.53;;
4533;SDS011;2279;51.448;7.306;2023-04-16T13:13:19;20.17;;;13.87;;
4533;SDS011;2279;51.448;7.306;2023-04-16T13:15:45;20.93;;;14.70;;
4533;SDS011;2279;51.448;7.306;2023-04-16T13:18:11;22.80;;;15.60;;
4533;SDS011;2279;51.448;7.306;2023-04-16T13:20:37;20.60;;;14.63;;
4533;SDS011;2279;51.448;7.306;2023-04-16T13:23:03;17.03;;;14.10;;
4533;SDS011;2279;51.448;7.306;2023-04-16T13:25:30;22.20;;;17.17;;
4533;SDS011;2279;51.448;7.306;2023-04-16T13:27:56;18.53;;;13.80;;
4533;SDS011;2279;51.448;7.306;2023-04-16T13:30:22;21.07;;;14.40;;
4533;SDS011;2279;51.448;7.306;2023-04-16T13:32:48;19.20;;;14.30;;
4533;SDS011;2279;51.448;7.306;2023-04-16T13:35:14;19.83;;;14.70;;
4533;SDS011;2279;51.448;7.306;2023-04-16T13:37:40;15.70;;;12.90;;
4533;SDS011;2279;51.448;7.306;2023-04-16T13:40:06;23.83;;;15.10;;
4533;SDS011;2279;51.448;7.306;2023-04-16T13:42:32;19.57;;;14.07;;
4533;SDS011;2279;51.448;7.306;2023-04-16T13:44:58;17.40;;;13.97;;
4533;SDS011;2279;51.448;7.306;2023-04-16T13:47:25;19.80;;;15.10;;
4533;SDS011;2279;51.448;7.306;2023-04-16T13:49:51;19.87;;;15.63;;
4533;SDS011;2279;51.448;7.306;2023-04-16T13:52:16;18.43;;;15.07;;
4533;SDS011;2279;51.448;7.306;2023-04-16T13:54:42;20.73;;;15.57;;
4533;SDS011;2279;51.448;7.306;2023-04-16T13:57:08;19.30;;;13.63;;
4533;SDS011;2279;51.448;7.306;2023-04-16T13:59:35;17.90;;;13.80;;
4533;SDS011;2279;51.448;7.306;2023-04-16T14:02:01;19.03;;;13.43;;
4533;SDS011;2279;51.448;7.306;2023-04-16T14:04:27;16.33;;;13.87;;
4533;SDS011;2279;51.448;7.306;2023-04-16T14:06:53;17.17;;;13.10;;
4533;SDS011;2279;51.448;7.306;2023-04-16T14:09:19;18.63;;;14.53;;
4533;SDS011;2279;51.448;7.306;2023-04-16T14:11:45;17.50;;;12.90;;
4533;SDS011;2279;51.448;7.306;2023-04-16T14:14:11;18.90;;;13.90;;
4533;SDS011;2279;51.448;7.306;2023-04-16T14:16:37;16.10;;;13.10;;
4533;SDS011;2279;51.448;7.306;2023-04-16T14:19:03;15.70;;;13.30;;
4533;SDS011;2279;51.448;7.306;2023-04-16T14:21:29;13.77;;;12.30;;
4533;SDS011;2279;51.448;7.306;2023-04-16T14:23:55;15.63;;;13.03;;
4533;SDS011;2279;51.448;7.306;2023-04-16T14:26:21;15.93;;;12.83;;
4533;SDS011;2279;51.448;7.306;2023-04-16T14:28:47;15.90;;;13.10;;
4533;SDS011;2279;51.448;7.306;2023-04-16T14:31:13;14.50;;;10.93;;
4533;SDS011;2279;51.448;7.306;2023-04-16T14:33:41;15.37;;;12.70;;
4533;SDS011;2279;51.448;7.306;2023-04-16T14:36:08;19.80;;;13.37;;
4533;SDS011;2279;51.448;7.306;2023-04-16T14:38:34;15.53;;;12.57;;
4533;SDS011;2279;51.448;7.306;2023-04-16T14:41:00;16.93;;;12.30;;
4533;SDS011;2279;51.448;7.306;2023-04-16T14:43:26;13.67;;;12.03;;
4533;SDS011;2279;51.448;7.306;2023-04-16T14:45:52;17.03;;;12.07;;
4533;SDS011;2279;51.448;7.306;2023-04-16T14:48:18;16.40;;;11.90;;
4533;SDS011;2279;51.448;7.306;2023-04-16T14:50:44;12.50;;;11.20;;
4533;SDS011;2279;51.448;7.306;2023-04-16T14:53:10;14.10;;;11.97;;
4533;SDS011;2279;51.448;7.306;2023-04-16T14:55:36;16.70;;;13.53;;
4533;SDS011;2279;51.448;7.306;2023-04-16T14:58:02;15.80;;;13.07;;